Terminal Aerodrome Forecast
Issued by NWS

Home | Current Version | Previous Version | Text Only | Print | Product List | Glossary On
Versions: 1 2 3 4 5 6 7 8 9 10 11 12 13 14 15 16 17 18 19 20 21 22 23
809
FTUS43 KGRR 160648 AAA
TAFBTL
TAF AMD
KBTL 160648Z 1607/1706 20004KT 3SM -SN BKN030
     FM161000 21005KT 3SM BR OVC015
     FM161500 VRB04KT 4SM BR OVC025=

USA.gov is the U.S. government's official web portal to all federal, state and local government web resources and services.